Alvorada de Minas, Brazil
Current Conditions -  °F | °C
As of 10:00 PM on Monday 24 Nov 2014 (Local Time) from SBLS Reporting Station
Broken Clouds Broken Clouds  
Wind Chill: 72°   Ceiling: 10000
Heat Index: 72°   Visibility: 6mi
Dew Point: 66°   Wind: 8mph
Humidity: 83%   Direction: 140°SE
Pressure: 30.06"   Gusts: NA
Location:  18.74°S, 43.37°W
Report Text: SBLS 250000Z 14007KT 9999 FEW025 BKN100 22/19 Q1018
Loading
Personal Weather Stations






























Interactive Weather Map New forecast layout! Learn more

10-Day Weather Forecast

Advertisements
Track Severe Weather on mobile